createdAt,value
2022-09-18T00:02:25.169Z,99.48
2022-09-18T00:04:59.549Z,99.80
2022-09-18T00:07:30.507Z,100.00
2022-09-18T00:10:04.591Z,100.00
2022-09-18T00:12:37.411Z,100.00
2022-09-18T00:15:13.633Z,100.00
2022-09-18T00:17:47.243Z,100.00
2022-09-18T00:20:18.222Z,100.00
2022-09-18T00:22:58.827Z,100.00
2022-09-18T00:25:33.218Z,100.00
2022-09-18T00:28:07.736Z,100.00
2022-09-18T00:30:41.333Z,100.00
2022-09-18T00:33:14.423Z,100.00
2022-09-18T00:35:50.458Z,100.00
2022-09-18T00:38:23.597Z,100.00
2022-09-18T00:40:58.047Z,100.00
2022-09-18T00:43:33.581Z,100.00
2022-09-18T00:46:17.649Z,99.97
2022-09-18T00:48:59.175Z,100.00
2022-09-18T00:51:42.672Z,100.00
2022-09-18T00:54:25.022Z,100.00
2022-09-18T00:57:03.395Z,100.00
2022-09-18T00:59:38.433Z,100.00
2022-09-18T01:02:15.128Z,100.00
2022-09-18T01:04:47.630Z,100.00
2022-09-18T01:07:43.482Z,100.00
2022-09-18T01:10:39.639Z,100.00
2022-09-18T01:13:39.117Z,100.00
2022-09-18T01:16:30.313Z,100.00
2022-09-18T01:19:31.900Z,100.00
2022-09-18T01:22:14.747Z,100.00
2022-09-18T01:25:03.538Z,100.00
2022-09-18T01:28:03.509Z,99.78
2022-09-18T01:30:37.903Z,100.00
2022-09-18T01:33:52.427Z,100.00
2022-09-18T01:36:30.907Z,100.00
2022-09-18T01:39:28.893Z,100.00
2022-09-18T01:42:02.796Z,99.67
2022-09-18T01:44:36.216Z,100.00
2022-09-18T01:47:11.807Z,100.00
2022-09-18T01:49:51.280Z,99.48
2022-09-18T01:52:57.912Z,98.52
2022-09-18T01:55:35.439Z,98.59
2022-09-18T01:58:21.831Z,97.34
2022-09-18T02:01:02.385Z,96.92
2022-09-18T02:03:58.790Z,96.50
2022-09-18T02:08:15.406Z,94.07
2022-09-18T02:10:35.642Z,94.37
2022-09-18T02:13:18.971Z,93.93
2022-09-18T02:15:52.447Z,92.78
2022-09-18T02:18:37.640Z,92.11
2022-09-18T02:21:16.806Z,91.13
2022-09-18T02:23:49.357Z,91.06
2022-09-18T02:26:22.725Z,91.27
2022-09-18T02:28:56.835Z,91.68
2022-09-18T02:31:28.643Z,90.61
2022-09-18T02:34:02.493Z,90.46
2022-09-18T02:37:08.858Z,89.39
2022-09-18T02:40:11.695Z,89.30
2022-09-18T02:43:06.646Z,88.70
2022-09-18T02:46:09.869Z,89.11
2022-09-18T02:48:44.422Z,88.74
2022-09-18T02:52:11.576Z,87.97
2022-09-18T02:58:35.512Z,91.18
2022-09-18T03:01:11.766Z,91.86
2022-09-18T03:03:45.143Z,91.84
2022-09-18T03:06:17.213Z,91.88
2022-09-18T03:08:48.932Z,91.29
2022-09-18T03:11:20.887Z,92.08
2022-09-18T03:13:52.955Z,92.51
2022-09-18T03:16:24.947Z,91.72
2022-09-18T03:18:57.120Z,92.47
2022-09-18T03:21:31.315Z,91.08
2022-09-18T03:24:04.072Z,91.07
2022-09-18T03:26:38.611Z,91.42
2022-09-18T03:29:14.996Z,92.13
2022-09-18T03:31:46.779Z,91.07
2022-09-18T03:34:20.394Z,90.59
2022-09-18T03:36:52.170Z,90.50
2022-09-18T03:39:23.276Z,90.27
2022-09-18T03:41:57.876Z,89.24
2022-09-18T03:44:30.826Z,89.48
2022-09-18T03:47:08.104Z,88.87
2022-09-18T03:49:40.632Z,88.38
2022-09-18T03:52:12.153Z,87.86
2022-09-18T03:54:50.500Z,87.46
2022-09-18T03:57:41.584Z,88.22
2022-09-18T04:00:32.563Z,88.84
2022-09-18T04:03:10.696Z,87.81
2022-09-18T04:06:01.384Z,86.63
2022-09-18T04:08:55.539Z,85.86
2022-09-18T04:11:36.025Z,86.24
2022-09-18T04:14:09.526Z,85.89
2022-09-18T04:16:41.251Z,85.93
2022-09-18T04:19:35.902Z,86.17
2022-09-18T04:22:07.781Z,84.75
2022-09-18T04:24:42.269Z,84.81
2022-09-18T04:27:14.922Z,84.38
2022-09-18T04:29:48.255Z,84.15
2022-09-18T04:32:20.992Z,83.13
2022-09-18T04:34:52.942Z,83.02
2022-09-18T04:37:24.365Z,82.45
2022-09-18T04:39:56.631Z,82.91
2022-09-18T04:42:28.231Z,81.21
2022-09-18T04:44:59.590Z,81.23
2022-09-18T04:47:32.311Z,80.05
2022-09-18T04:50:03.990Z,79.63
2022-09-18T04:52:34.460Z,79.74
2022-09-18T04:55:07.154Z,79.03
2022-09-18T04:57:43.636Z,79.77
2022-09-18T05:00:14.884Z,79.81
2022-09-18T05:02:46.645Z,78.70
2022-09-18T05:05:22.954Z,78.05
2022-09-18T05:07:54.016Z,76.70
2022-09-18T05:10:26.133Z,76.31
2022-09-18T05:12:57.205Z,77.14
2022-09-18T05:15:30.336Z,76.90
2022-09-18T05:18:11.098Z,76.12
2022-09-18T05:20:43.256Z,76.83
2022-09-18T05:23:14.965Z,75.47
2022-09-18T05:25:46.175Z,77.53
2022-09-18T05:28:21.955Z,77.16
2022-09-18T05:31:04.526Z,76.12
2022-09-18T05:33:46.179Z,75.99
2022-09-18T05:36:17.355Z,74.78
2022-09-18T05:38:50.569Z,73.39
2022-09-18T05:41:24.816Z,72.68
2022-09-18T05:43:55.896Z,72.77
2022-09-18T05:46:27.334Z,72.15
2022-09-18T05:49:03.482Z,72.16
2022-09-18T05:51:34.978Z,67.08
2022-09-18T05:54:07.000Z,67.30
2022-09-18T05:56:43.668Z,66.93
2022-09-18T05:59:17.336Z,66.74
2022-09-18T06:01:51.792Z,68.06
2022-09-18T06:04:48.332Z,66.16
2022-09-18T06:07:19.447Z,63.93
2022-09-18T06:09:50.819Z,62.29
2022-09-18T06:12:21.307Z,64.07
2022-09-18T06:14:52.778Z,64.55
2022-09-18T06:17:24.317Z,64.58
2022-09-18T06:19:58.187Z,65.81
2022-09-18T06:22:29.666Z,63.99
2022-09-18T06:25:01.829Z,64.07
2022-09-18T06:27:36.941Z,64.11
2022-09-18T06:30:30.727Z,63.84
2022-09-18T06:33:35.922Z,61.71
2022-09-18T06:36:11.483Z,62.13
2022-09-18T06:38:54.513Z,61.30
2022-09-18T06:41:26.867Z,61.70
2022-09-18T06:43:58.360Z,61.49
2022-09-18T06:46:37.646Z,61.85
2022-09-18T06:49:19.777Z,61.17
2022-09-18T06:51:51.729Z,61.74
2022-09-18T06:54:22.532Z,62.53
2022-09-18T06:56:54.119Z,63.01
2022-09-18T06:59:25.604Z,62.71
2022-09-18T07:01:56.948Z,60.90
2022-09-18T07:04:48.719Z,62.06
2022-09-18T07:07:21.595Z,61.52
2022-09-18T07:09:55.454Z,58.88
2022-09-18T07:12:38.705Z,58.85
2022-09-18T07:15:12.095Z,58.98
2022-09-18T07:17:46.674Z,59.65
2022-09-18T07:20:21.473Z,58.26
2022-09-18T07:23:07.146Z,59.12
2022-09-18T07:25:48.523Z,58.79
2022-09-18T07:28:21.637Z,57.90
2022-09-18T07:31:06.842Z,57.61
2022-09-18T07:33:39.698Z,56.95
2022-09-18T07:36:11.769Z,56.01
2022-09-18T07:38:43.097Z,55.14
2022-09-18T07:41:14.334Z,54.47
2022-09-18T07:43:51.161Z,55.51
2022-09-18T07:46:24.067Z,55.82
2022-09-18T07:49:01.768Z,54.62
2022-09-18T07:51:35.350Z,54.13
2022-09-18T07:54:07.879Z,55.24
2022-09-18T07:56:55.735Z,55.40
2022-09-18T07:59:31.024Z,55.04
2022-09-18T08:02:06.976Z,54.90
2022-09-18T08:04:43.679Z,52.67
2022-09-18T08:07:23.683Z,54.55
2022-09-18T08:09:56.103Z,53.79
2022-09-18T08:12:45.459Z,54.02
2022-09-18T08:15:45.227Z,53.29
2022-09-18T08:18:30.292Z,54.21
2022-09-18T08:21:28.451Z,53.46
2022-09-18T08:23:59.744Z,53.61
2022-09-18T08:26:30.885Z,54.81
2022-09-18T08:29:02.282Z,54.98
2022-09-18T08:31:33.331Z,54.35
2022-09-18T08:34:07.176Z,54.02
2022-09-18T08:36:46.592Z,53.56
2022-09-18T08:39:24.607Z,53.69
2022-09-18T08:42:26.968Z,53.53
2022-09-18T08:45:05.822Z,54.41
2022-09-18T08:47:49.875Z,55.00
2022-09-18T08:50:38.751Z,55.41
2022-09-18T08:53:31.226Z,55.20
2022-09-18T08:56:29.356Z,55.82
2022-09-18T08:59:34.869Z,55.28
2022-09-18T09:02:24.961Z,55.26
2022-09-18T09:05:05.925Z,55.52
2022-09-18T09:07:54.980Z,54.45
2022-09-18T09:10:51.508Z,54.93
2022-09-18T09:13:43.380Z,55.48
2022-09-18T09:16:20.442Z,53.99
2022-09-18T09:19:21.637Z,54.44
2022-09-18T09:22:27.029Z,53.66
2022-09-18T09:25:30.130Z,55.30
2022-09-18T09:28:54.751Z,56.61
2022-09-18T09:31:51.962Z,57.58
2022-09-18T09:35:20.032Z,56.13
2022-09-18T09:38:36.577Z,57.78
2022-09-18T09:41:32.656Z,58.88
2022-09-18T09:44:17.886Z,59.13
2022-09-18T09:46:57.387Z,58.30
2022-09-18T09:50:09.264Z,57.39
2022-09-18T09:52:44.572Z,58.62
2022-09-18T09:55:22.142Z,56.75
2022-09-18T09:58:41.048Z,56.76
2022-09-18T10:01:19.203Z,56.14
2022-09-18T10:03:57.748Z,55.73
2022-09-18T10:06:38.098Z,55.36
2022-09-18T10:09:31.457Z,54.90
2022-09-18T10:12:18.696Z,54.58
2022-09-18T10:14:58.358Z,55.31
2022-09-18T10:17:32.754Z,55.81
2022-09-18T10:20:08.006Z,56.28
2022-09-18T10:22:39.829Z,55.55
2022-09-18T10:25:23.031Z,55.11
2022-09-18T10:27:58.224Z,55.14
2022-09-18T10:30:33.805Z,54.04
2022-09-18T10:33:27.639Z,53.97
2022-09-18T10:36:25.054Z,54.40
2022-09-18T10:39:04.350Z,56.12
2022-09-18T10:41:42.656Z,55.27
2022-09-18T10:44:23.645Z,54.06
2022-09-18T10:47:23.197Z,55.03
2022-09-18T10:50:10.299Z,54.79
2022-09-18T10:52:51.226Z,54.42
2022-09-18T10:55:36.182Z,54.28
2022-09-18T10:58:16.977Z,53.03
2022-09-18T11:01:06.937Z,51.76
2022-09-18T11:03:47.026Z,53.47
2022-09-18T11:06:31.476Z,53.46
2022-09-18T11:09:14.643Z,54.24
2022-09-18T11:11:52.563Z,54.70
2022-09-18T11:14:33.870Z,55.59
2022-09-18T11:17:17.750Z,56.10
2022-09-18T11:19:54.079Z,55.19
2022-09-18T11:22:50.584Z,56.27
2022-09-18T11:25:30.968Z,56.29
2022-09-18T11:28:31.287Z,56.41
2022-09-18T11:31:17.737Z,56.41
2022-09-18T11:34:04.174Z,56.67
2022-09-18T11:36:42.377Z,56.29
2022-09-18T11:39:24.571Z,56.98
2022-09-18T11:41:57.088Z,57.66
2022-09-18T11:44:37.850Z,57.19
2022-09-18T11:47:36.886Z,57.29
2022-09-18T11:50:07.949Z,57.64
2022-09-18T11:52:44.880Z,57.20
2022-09-18T11:55:38.005Z,56.12
2022-09-18T11:58:16.959Z,56.14
2022-09-18T12:01:05.040Z,56.11
2022-09-18T12:03:46.803Z,55.59
2022-09-18T12:06:33.276Z,54.28
2022-09-18T12:09:40.127Z,53.67
2022-09-18T12:12:40.144Z,53.77
2022-09-18T12:15:21.954Z,53.98
2022-09-18T12:18:20.567Z,54.00
2022-09-18T12:20:58.720Z,55.10
2022-09-18T12:23:31.647Z,54.59
2022-09-18T12:26:38.244Z,55.26
2022-09-18T12:29:23.558Z,55.74
2022-09-18T12:32:29.875Z,54.88
2022-09-18T12:35:27.142Z,55.68
2022-09-18T12:38:03.410Z,56.02
2022-09-18T12:40:48.703Z,56.08
2022-09-18T12:43:45.268Z,56.55
2022-09-18T12:46:36.126Z,56.89
2022-09-18T12:49:44.060Z,57.43
2022-09-18T12:53:08.548Z,59.41
2022-09-18T12:55:54.119Z,59.84
2022-09-18T12:59:09.270Z,60.99
2022-09-18T13:01:51.316Z,62.02
2022-09-18T13:04:34.222Z,62.52
2022-09-18T13:07:30.453Z,64.03
2022-09-18T13:10:31.004Z,64.54
2022-09-18T13:13:23.546Z,65.48
2022-09-18T13:15:58.652Z,66.09
2022-09-18T13:18:39.305Z,66.39
2022-09-18T13:21:33.645Z,66.65
2022-09-18T13:24:06.513Z,67.62
2022-09-18T13:26:44.513Z,68.02
2022-09-18T13:29:49.930Z,67.75
2022-09-18T13:32:34.016Z,67.15
2022-09-18T13:35:10.445Z,67.17
2022-09-18T13:37:41.095Z,67.15
2022-09-18T13:40:57.698Z,66.19
2022-09-18T13:43:43.867Z,66.10
2022-09-18T13:46:43.141Z,66.95
2022-09-18T13:50:38.598Z,66.75
2022-09-18T13:56:04.449Z,64.44
2022-09-18T13:58:41.885Z,64.76
2022-09-18T14:01:49.280Z,63.96
2022-09-18T14:04:56.132Z,63.95
2022-09-18T14:07:38.993Z,63.42
2022-09-18T14:16:44.964Z,63.08
2022-09-18T14:19:38.693Z,63.89
2022-09-18T14:22:50.268Z,64.85
2022-09-18T14:25:52.881Z,67.71
2022-09-18T14:28:23.991Z,66.17
2022-09-18T14:31:38.544Z,67.01
2022-09-18T14:34:19.396Z,67.52
2022-09-18T14:37:05.560Z,68.45
2022-09-18T14:39:43.119Z,68.89
2022-09-18T14:42:44.158Z,69.08
2022-09-18T14:45:15.396Z,68.34
2022-09-18T14:47:50.841Z,69.65
2022-09-18T14:50:36.383Z,70.03
2022-09-18T14:53:31.122Z,69.56
2022-09-18T14:56:13.835Z,71.17
2022-09-18T14:58:50.976Z,70.36
2022-09-18T15:01:30.243Z,71.27
2022-09-18T15:04:05.183Z,71.08
2022-09-18T15:06:41.992Z,71.62
2022-09-18T15:09:18.858Z,70.99
2022-09-18T15:12:02.350Z,71.44
2022-09-18T15:14:45.560Z,71.27
2022-09-18T15:17:25.666Z,71.01
2022-09-18T15:20:01.890Z,71.34
2022-09-18T15:22:35.286Z,71.31
2022-09-18T15:25:07.747Z,71.50
2022-09-18T15:27:40.144Z,71.76
2022-09-18T15:30:24.782Z,72.08
2022-09-18T15:33:08.536Z,72.41
2022-09-18T15:35:40.406Z,71.60
2022-09-18T15:38:27.856Z,71.94
2022-09-18T15:40:58.260Z,72.57
2022-09-18T15:43:44.744Z,73.20
2022-09-18T15:46:30.690Z,74.04
2022-09-18T15:49:04.532Z,73.30
2022-09-18T15:51:38.566Z,73.00
2022-09-18T15:54:13.136Z,73.35
2022-09-18T15:56:55.355Z,73.40
2022-09-18T15:59:42.170Z,73.56
2022-09-18T16:02:43.622Z,72.76
2022-09-18T16:05:17.191Z,73.29
2022-09-18T16:08:04.461Z,72.63
2022-09-18T16:10:47.882Z,72.34
2022-09-18T16:13:21.468Z,72.96
2022-09-18T16:16:16.190Z,73.56
2022-09-18T16:19:14.935Z,73.43
2022-09-18T16:21:46.491Z,73.96
2022-09-18T16:25:01.373Z,73.84
2022-09-18T16:27:46.968Z,73.85
2022-09-18T16:30:17.923Z,74.53
2022-09-18T16:32:58.428Z,74.08
2022-09-18T16:35:39.213Z,73.92
2022-09-18T16:38:11.462Z,73.91
2022-09-18T16:40:56.991Z,72.76
2022-09-18T16:43:31.467Z,73.00
2022-09-18T16:46:23.031Z,72.40
2022-09-18T16:49:06.198Z,73.15
2022-09-18T16:51:39.987Z,73.51
2022-09-18T16:54:14.001Z,74.04
2022-09-18T16:56:55.023Z,74.79
2022-09-18T16:59:31.435Z,74.18
2022-09-18T17:02:05.268Z,74.34
2022-09-18T17:04:40.146Z,74.88
2022-09-18T17:07:13.966Z,75.00
2022-09-18T17:09:44.973Z,74.50
2022-09-18T17:12:16.442Z,75.52
2022-09-18T17:14:51.421Z,76.42
2022-09-18T17:17:24.811Z,76.26
2022-09-18T17:19:57.128Z,76.68
2022-09-18T17:22:30.387Z,76.30
2022-09-18T17:25:05.135Z,76.23
2022-09-18T17:27:43.825Z,76.35
2022-09-18T17:30:16.370Z,76.18
2022-09-18T17:32:53.763Z,76.38
2022-09-18T17:35:30.640Z,76.15
2022-09-18T17:38:01.098Z,76.66
2022-09-18T17:40:34.724Z,75.49
2022-09-18T17:43:05.163Z,75.50
2022-09-18T17:45:35.958Z,76.23
2022-09-18T17:48:10.905Z,75.86
2022-09-18T17:50:57.105Z,77.21
2022-09-18T17:53:29.609Z,77.64
2022-09-18T17:56:00.832Z,77.54
2022-09-18T17:58:33.044Z,78.24
2022-09-18T18:01:03.351Z,78.81
2022-09-18T18:03:33.535Z,79.65
2022-09-18T18:06:06.775Z,79.46
2022-09-18T18:08:40.867Z,79.40
2022-09-18T18:11:17.985Z,79.10
2022-09-18T18:13:52.087Z,78.85
2022-09-18T18:16:29.306Z,78.70
2022-09-18T18:19:05.253Z,79.16
2022-09-18T18:21:38.063Z,79.32
2022-09-18T18:24:28.799Z,79.29
2022-09-18T18:27:06.079Z,79.93
2022-09-18T18:29:41.499Z,79.72
2022-09-18T18:32:14.656Z,78.97
2022-09-18T18:34:47.543Z,79.58
2022-09-18T18:37:25.018Z,79.88
2022-09-18T18:39:57.021Z,80.13
2022-09-18T18:42:29.730Z,79.62
2022-09-18T18:45:03.187Z,80.49
2022-09-18T18:47:34.473Z,79.58
2022-09-18T18:50:07.135Z,78.39
2022-09-18T18:52:37.728Z,78.32
2022-09-18T18:55:09.363Z,79.35
2022-09-18T18:57:44.495Z,78.53
2022-09-18T19:00:16.856Z,78.55
2022-09-18T19:02:50.705Z,78.63
2022-09-18T19:05:46.302Z,77.58
2022-09-18T19:08:52.324Z,78.39
2022-09-18T19:11:24.972Z,77.92
2022-09-18T19:13:58.403Z,78.28
2022-09-18T19:16:40.099Z,77.79
2022-09-18T19:19:25.075Z,77.93
2022-09-18T19:22:04.119Z,77.14
2022-09-18T19:24:44.552Z,77.14
2022-09-18T19:27:23.566Z,77.20
2022-09-18T19:30:08.419Z,77.29
2022-09-18T19:32:40.805Z,77.17
2022-09-18T19:35:12.317Z,77.45
2022-09-18T19:37:45.202Z,76.48
2022-09-18T19:40:22.039Z,77.35
2022-09-18T19:43:05.007Z,76.46
2022-09-18T19:45:43.681Z,76.01
2022-09-18T19:51:24.051Z,75.58
2022-09-18T19:53:55.632Z,75.48
2022-09-18T19:56:42.142Z,75.81
2022-09-18T19:59:14.482Z,75.22
2022-09-18T20:01:46.615Z,75.42
2022-09-18T20:04:18.638Z,75.36
2022-09-18T20:06:50.275Z,75.39
2022-09-18T20:09:21.741Z,75.34
2022-09-18T20:11:53.628Z,75.47
2022-09-18T20:14:47.087Z,75.77
2022-09-18T20:17:34.156Z,75.53
2022-09-18T20:20:16.172Z,75.85
2022-09-18T20:23:09.344Z,76.30
2022-09-18T20:25:43.209Z,76.00
2022-09-18T20:28:14.435Z,76.18
2022-09-18T20:30:46.400Z,77.13
2022-09-18T20:33:22.851Z,77.83
2022-09-18T20:36:00.622Z,77.82
2022-09-18T20:38:41.972Z,77.22
2022-09-18T20:41:23.491Z,77.24
2022-09-18T20:44:06.597Z,77.68
2022-09-18T20:46:38.327Z,78.16
2022-09-18T20:49:10.255Z,77.94
2022-09-18T20:51:52.399Z,78.10
2022-09-18T20:54:33.374Z,78.27
2022-09-18T20:57:24.410Z,78.01
2022-09-18T20:59:56.438Z,77.52
2022-09-18T21:02:33.354Z,77.14
2022-09-18T21:05:15.954Z,76.91
2022-09-18T21:08:01.928Z,76.69
2022-09-18T21:10:48.631Z,77.40
2022-09-18T21:13:21.786Z,78.09
2022-09-18T21:15:53.019Z,78.75
2022-09-18T21:18:25.738Z,79.59
2022-09-18T21:21:10.109Z,79.67
2022-09-18T21:24:03.405Z,79.99
2022-09-18T21:26:40.449Z,80.57
2022-09-18T21:29:28.415Z,80.33
2022-09-18T21:32:03.018Z,80.71
2022-09-18T21:35:07.059Z,81.21
2022-09-18T21:37:59.006Z,81.47
2022-09-18T21:40:30.128Z,81.86
2022-09-18T21:43:14.025Z,82.06
2022-09-18T21:45:49.801Z,82.26
2022-09-18T21:48:20.808Z,82.62
2022-09-18T21:51:02.756Z,82.10
2022-09-18T21:53:34.846Z,81.51
2022-09-18T21:56:09.589Z,82.16
2022-09-18T21:58:42.450Z,82.26
2022-09-18T22:01:44.656Z,81.72
2022-09-18T22:04:16.459Z,80.95
2022-09-18T22:06:49.017Z,81.81
2022-09-18T22:09:26.178Z,82.33
2022-09-18T22:11:59.321Z,82.19
2022-09-18T22:14:38.505Z,82.25
2022-09-18T22:17:11.472Z,82.69
2022-09-18T22:19:43.928Z,82.70
2022-09-18T22:22:14.128Z,82.11
2022-09-18T22:24:46.753Z,83.21
2022-09-18T22:27:19.538Z,83.37
2022-09-18T22:29:55.370Z,83.89
2022-09-18T22:32:26.761Z,83.74
2022-09-18T22:35:08.417Z,84.17
2022-09-18T22:37:39.758Z,84.41
2022-09-18T22:40:11.860Z,84.50
2022-09-18T22:42:43.690Z,84.49
2022-09-18T22:45:14.851Z,84.63
2022-09-18T22:48:04.822Z,84.29
2022-09-18T22:50:37.281Z,84.20
2022-09-18T22:53:09.230Z,85.07
2022-09-18T22:55:40.572Z,85.40
2022-09-18T22:58:18.850Z,84.89
2022-09-18T23:00:50.813Z,84.60
2022-09-18T23:03:32.424Z,84.56
2022-09-18T23:06:08.133Z,85.21
2022-09-18T23:08:41.589Z,84.99
2022-09-18T23:11:24.090Z,84.94
2022-09-18T23:14:03.728Z,84.92
2022-09-18T23:16:37.876Z,84.71
2022-09-18T23:19:15.256Z,85.17
2022-09-18T23:21:47.175Z,86.07
2022-09-18T23:24:22.466Z,86.27
2022-09-18T23:26:55.441Z,86.12
2022-09-18T23:29:29.151Z,86.93
2022-09-18T23:32:00.844Z,86.71
2022-09-18T23:34:35.529Z,86.76
2022-09-18T23:37:06.346Z,87.49
2022-09-18T23:39:38.289Z,87.70
2022-09-18T23:42:11.361Z,87.95
2022-09-18T23:44:43.914Z,87.52
2022-09-18T23:47:15.373Z,87.70
2022-09-18T23:49:47.327Z,88.40
2022-09-18T23:52:19.308Z,88.47
2022-09-18T23:54:50.805Z,88.33
2022-09-18T23:57:23.918Z,88.37
2022-09-18T23:59:55.868Z,88.57
